Time;durP1;ratioP1;P1;durP2;ratioP2;P2;SDS_P1;SDS_P2;PMS_P1;PMS_P2;Temp;Humidity;BMP_temperature;BMP_pressure;BME280_temperature;BME280_humidity;BME280_pressure;Samples;Min_cycle;Max_cycle;Signal;HPM_P1;HPM_P2
2024/02/28 00:00:59;;;;;;;25.05;7.53;;;;;;;5.87;86.17;101102.31;5027093;28;20049;-51
2024/02/28 00:03:27;;;;;;;26.27;6.95;;;;;;;5.85;86.28;101090.81;5023668;28;20053;-52
2024/02/28 00:05:54;;;;;;;27.23;7.63;;;;;;;5.84;86.23;101081.72;5027141;28;20045;-50
2024/02/28 00:08:22;;;;;;;27.50;7.75;;;;;;;5.86;86.18;101081.44;5027946;28;20411;-52
2024/02/28 00:10:49;;;;;;;33.17;8.65;;;;;;;5.87;86.43;101074.81;5009180;28;20064;-54
2024/02/28 00:13:17;;;;;;;29.55;6.57;;;;;;;5.88;86.40;101062.69;5027195;28;20478;-54
2024/02/28 00:15:44;;;;;;;27.83;7.03;;;;;;;5.89;86.58;101075.31;5026702;28;20049;-53
2024/02/28 00:18:12;;;;;;;22.20;5.57;;;;;;;5.89;86.44;101078.88;5028890;28;20057;-55
2024/02/28 00:20:40;;;;;;;25.05;5.75;;;;;;;5.87;86.55;101083.88;5028332;28;20103;-50
2024/02/28 00:23:10;;;;;;;30.05;6.13;;;;;;;5.87;86.49;101069.31;5028039;28;20115;-55
2024/02/28 00:25:38;;;;;;;30.42;6.55;;;;;;;5.85;86.51;101066.88;4997729;28;20060;-52
2024/02/28 00:28:05;;;;;;;22.00;5.97;;;;;;;5.86;86.70;101070.44;5026919;28;20049;-53
2024/02/28 00:30:33;;;;;;;31.42;5.80;;;;;;;5.86;86.73;101071.25;5028357;28;20419;-57
2024/02/28 00:33:00;;;;;;;28.50;6.40;;;;;;;5.85;87.11;101058.63;5028146;28;20061;-58
2024/02/28 00:35:32;;;;;;;30.17;7.63;;;;;;;5.87;86.91;101063.84;5028224;28;20049;-57
2024/02/28 00:38:01;;;;;;;;;;;;;;;5.87;87.43;101050.91;5028654;28;20072;-57
2024/02/28 00:40:28;;;;;;;27.15;5.57;;;;;;;5.88;87.14;101048.97;5028270;28;19932;-53
2024/02/28 00:42:57;;;;;;;21.27;5.40;;;;;;;5.87;87.03;101061.91;5027479;28;20038;-53
2024/02/28 00:45:25;;;;;;;32.78;7.30;;;;;;;5.87;87.30;101067.41;5027834;28;20049;-53
2024/02/28 00:47:54;;;;;;;27.02;6.10;;;;;;;5.89;87.37;101053.34;5010369;28;20045;-53
2024/02/28 00:50:22;;;;;;;23.98;7.82;;;;;;;5.86;87.43;101045.72;5027901;28;20041;-57
2024/02/28 00:52:49;;;;;;;23.10;6.32;;;;;;;5.87;87.53;101050.09;5037999;28;20049;-55
2024/02/28 00:55:18;;;;;;;30.38;6.93;;;;;;;5.87;87.72;101044.59;5010467;28;20056;-54
2024/02/28 00:57:46;;;;;;;29.08;6.85;;;;;;;5.86;87.90;101059.44;5027803;28;20049;-54
2024/02/28 01:00:13;;;;;;;32.03;7.38;;;;;;;5.83;87.74;101060.03;5027211;28;20052;-60
2024/02/28 01:02:41;;;;;;;29.13;6.63;;;;;;;5.82;88.03;101052.91;5027075;28;20603;-50
2024/02/28 01:05:09;;;;;;;30.15;7.10;;;;;;;5.85;88.14;101052.34;5023915;28;20049;-56
2024/02/28 01:07:36;;;;;;;29.40;6.20;;;;;;;5.85;88.19;101052.34;5027381;28;20049;-54
2024/02/28 01:10:04;;;;;;;26.98;8.13;;;;;;;5.84;88.11;101067.16;5011539;28;20046;-56
2024/02/28 01:12:31;;;;;;;36.78;6.55;;;;;;;5.86;88.22;101067.69;5018498;28;20820;-53
2024/02/28 01:14:59;;;;;;;21.40;5.78;;;;;;;5.85;88.15;101058.63;5027314;28;20053;-52
2024/02/28 01:17:26;;;;;;;30.52;6.15;;;;;;;5.85;88.48;101053.13;5028131;28;20046;-56
2024/02/28 01:19:54;;;;;;;33.60;6.72;;;;;;;5.86;88.42;101048.47;5026931;28;20037;-56
2024/02/28 01:22:21;;;;;;;26.50;7.50;;;;;;;5.88;88.36;101046.22;5021236;28;20049;-58
2024/02/28 01:24:48;;;;;;;36.28;6.43;;;;;;;5.90;88.61;101033.00;5027628;28;20052;-56
2024/02/28 01:27:16;;;;;;;29.92;6.18;;;;;;;5.92;88.55;101028.81;5026532;28;20041;-54
2024/02/28 01:29:43;;;;;;;36.83;8.13;;;;;;;5.94;88.33;101029.31;5026888;28;20057;-53
2024/02/28 01:32:11;;;;;;;21.92;4.97;;;;;;;5.95;88.51;101035.63;5027168;28;20038;-51
2024/02/28 01:34:39;;;;;;;26.27;6.63;;;;;;;5.95;88.57;101038.38;5027922;28;20056;-55
2024/02/28 01:37:07;;;;;;;22.38;5.03;;;;;;;5.94;88.57;101036.75;5027766;28;20045;-51
2024/02/28 01:39:34;;;;;;;19.35;4.97;;;;;;;5.95;88.85;101032.88;5027216;28;20511;-57
2024/02/28 01:42:02;;;;;;;20.52;5.30;;;;;;;5.95;88.80;101030.13;5025867;28;20388;-56
2024/02/28 01:44:29;;;;;;;21.80;5.78;;;;;;;5.98;88.98;101048.75;5027586;28;20711;-55
2024/02/28 01:46:58;;;;;;;23.05;5.28;;;;;;;5.96;88.74;101042.75;5026933;28;20415;-52
2024/02/28 01:49:25;;;;;;;18.30;5.03;;;;;;;5.95;89.00;101024.66;5027213;28;20053;-52
2024/02/28 01:51:54;;;;;;;20.33;6.47;;;;;;;5.96;88.90;101020.75;5032499;28;20052;-55
2024/02/28 01:54:22;;;;;;;29.08;7.43;;;;;;;5.97;89.02;101020.47;5028716;28;20419;-54
2024/02/28 01:56:50;;;;;;;26.67;5.75;;;;;;;5.97;88.99;101034.22;5027407;28;20034;-55
2024/02/28 01:59:18;;;;;;;20.48;6.50;;;;;;;5.99;88.96;101036.63;5026700;28;20049;-60
2024/02/28 02:01:46;;;;;;;23.50;5.30;;;;;;;5.99;88.90;101025.63;5023918;28;20552;-53
2024/02/28 02:04:13;;;;;;;28.17;5.82;;;;;;;5.99;89.23;101023.72;5027262;28;20046;-54
2024/02/28 02:06:43;;;;;;;29.17;5.18;;;;;;;5.99;89.06;101020.97;5009482;28;20049;-56
2024/02/28 02:09:11;;;;;;;24.90;5.63;;;;;;;6.01;89.14;101023.44;5026481;28;20045;-55
2024/02/28 02:11:39;;;;;;;26.75;5.35;;;;;;;6.03;89.42;101032.16;5009160;28;20049;-58
2024/02/28 02:14:06;;;;;;;26.77;5.63;;;;;;;6.05;89.09;101019.75;5026256;28;20049;-55
2024/02/28 02:16:33;;;;;;;21.88;6.13;;;;;;;6.08;89.16;101026.56;5026821;28;20046;-58
2024/02/28 02:19:01;;;;;;;22.98;3.85;;;;;;;6.10;89.21;101046.28;5028842;28;20045;-51
2024/02/28 02:21:35;;;;;;;24.50;4.90;;;;;;;6.10;89.14;101027.88;5030075;28;20053;-56
2024/02/28 02:24:02;;;;;;;21.23;5.22;;;;;;;6.11;89.26;101018.53;5030086;28;20053;-53
2024/02/28 02:26:29;;;;;;;25.83;4.47;;;;;;;6.11;89.03;101018.53;5030468;28;20064;-54
2024/02/28 02:28:57;;;;;;;20.33;4.00;;;;;;;6.12;89.06;101022.88;5030375;28;20052;-54
2024/02/28 02:31:24;;;;;;;28.40;4.30;;;;;;;6.13;89.17;101021.75;5029563;28;20041;-56
2024/02/28 02:33:52;;;;;;;26.48;5.28;;;;;;;6.14;89.07;101017.09;5028643;28;20053;-52
2024/02/28 02:36:19;;;;;;;23.15;4.63;;;;;;;6.15;89.04;101010.44;5029991;28;20053;-56
2024/02/28 02:38:47;;;;;;;26.25;4.97;;;;;;;6.17;89.17;100999.16;5028477;28;20041;-57
2024/02/28 02:41:14;;;;;;;26.70;4.05;;;;;;;6.18;88.83;100989.78;5029477;28;20049;-53
2024/02/28 02:43:42;;;;;;;23.95;3.60;;;;;;;6.17;88.95;100979.91;5029775;28;20060;-56
2024/02/28 02:46:09;;;;;;;22.30;6.70;;;;;;;6.17;88.83;100961.47;5030230;28;20041;-51
2024/02/28 02:48:36;;;;;;;24.60;4.45;;;;;;;6.17;88.89;100950.47;5026489;28;20056;-56
2024/02/28 02:51:04;;;;;;;21.40;4.20;;;;;;;6.17;88.80;100958.72;5030383;28;20272;-54
2024/02/28 02:53:31;;;;;;;25.63;4.75;;;;;;;6.17;88.84;100942.22;5037824;28;20080;-54
2024/02/28 02:55:58;;;;;;;29.10;4.65;;;;;;;6.17;88.97;100928.47;5029238;28;20136;-54
2024/02/28 02:58:26;;;;;;;17.33;3.67;;;;;;;6.18;88.78;100918.28;5029573;28;20057;-52
2024/02/28 03:00:53;;;;;;;20.25;3.67;;;;;;;6.17;88.64;100914.72;5109057;22;20053;-57
2024/02/28 03:03:21;;;;;;;30.83;3.97;;;;;;;6.16;88.65;100904.88;5068289;28;20056;-58
2024/02/28 03:05:48;;;;;;;21.70;4.10;;;;;;;6.17;88.61;100881.75;5068258;28;20409;-58
2024/02/28 03:08:15;;;;;;;23.50;3.85;;;;;;;6.18;88.61;100874.31;5074457;28;20599;-57
2024/02/28 03:10:43;;;;;;;21.38;5.88;;;;;;;6.19;88.69;100875.94;5072268;28;20048;-56
2024/02/28 03:13:10;;;;;;;26.13;4.47;;;;;;;6.21;88.50;100865.44;5072514;28;20052;-56
2024/02/28 03:15:38;;;;;;;16.15;4.15;;;;;;;6.21;88.57;100863.50;5068017;28;20044;-56
2024/02/28 03:18:05;;;;;;;25.45;4.35;;;;;;;6.21;88.65;100855.25;5060890;28;20048;-57
2024/02/28 03:20:34;;;;;;;34.53;4.80;;;;;;;6.22;88.67;100848.66;5066350;28;20052;-57
2024/02/28 03:23:01;;;;;;;16.13;4.22;;;;;;;6.23;88.71;100854.94;5046919;28;20060;-57
2024/02/28 03:25:28;;;;;;;24.50;4.28;;;;;;;6.23;88.47;100842.00;5068516;28;20432;-55
2024/02/28 03:27:56;;;;;;;32.63;7.65;;;;;;;6.26;88.67;100838.63;5069930;28;20045;-59
2024/02/28 03:30:24;;;;;;;18.92;3.63;;;;;;;6.28;88.54;100828.13;5058145;28;21849;-57
2024/02/28 03:32:51;;;;;;;18.52;3.67;;;;;;;6.27;88.44;100833.97;5049267;28;20049;-57
2024/02/28 03:35:18;;;;;;;21.08;3.63;;;;;;;6.26;88.53;100844.13;5071178;28;20037;-56
2024/02/28 03:37:46;;;;;;;24.80;4.97;;;;;;;6.28;88.51;100830.06;5068171;28;20044;-57
2024/02/28 03:40:14;;;;;;;17.42;3.85;;;;;;;6.26;88.60;100833.13;5076021;28;20051;-56
2024/02/28 03:42:42;;;;;;;23.05;6.13;;;;;;;6.27;88.75;100833.97;5067015;28;20048;-57
2024/02/28 03:45:09;;;;;;;12.77;3.45;;;;;;;6.24;88.75;100829.09;5063321;28;20052;-58
2024/02/28 03:47:37;;;;;;;22.65;4.75;;;;;;;6.26;88.80;100837.81;5066903;28;20057;-57
2024/02/28 03:50:05;;;;;;;16.67;4.53;;;;;;;6.25;88.57;100823.25;5047648;28;20067;-58
2024/02/28 03:52:33;;;;;;;20.85;4.63;;;;;;;6.25;88.58;100811.47;5063348;28;20571;-56
2024/02/28 03:55:00;;;;;;;24.67;5.40;;;;;;;6.26;88.70;100805.66;5060076;28;20060;-57
2024/02/28 03:57:28;;;;;;;15.68;4.07;;;;;;;6.25;88.69;100795.78;5062301;28;20040;-57
2024/02/28 03:59:55;;;;;;;33.35;6.18;;;;;;;6.22;88.69;100790.09;5067535;28;20067;-57
2024/02/28 04:02:23;;;;;;;18.30;4.32;;;;;;;6.22;88.83;100782.69;5065879;28;20075;-54
2024/02/28 04:04:50;;;;;;;18.73;4.30;;;;;;;6.23;88.84;100777.97;5074360;28;20045;-57
2024/02/28 04:07:17;;;;;;;19.52;4.45;;;;;;;6.22;88.64;100777.19;5067767;28;20398;-56
2024/02/28 04:09:45;;;;;;;14.38;3.67;;;;;;;6.22;88.82;100771.69;5074935;28;20044;-55
2024/02/28 04:12:13;;;;;;;24.33;4.80;;;;;;;6.22;88.81;100768.13;5071332;28;20131;-57
2024/02/28 04:14:41;;;;;;;21.95;4.72;;;;;;;6.20;88.94;100759.34;5069647;28;20541;-56
2024/02/28 04:17:08;;;;;;;15.88;4.30;;;;;;;6.19;88.99;100761.31;5066587;28;20040;-56
2024/02/28 04:19:37;;;;;;;17.75;5.50;;;;;;;6.21;88.86;100761.81;5049723;28;20124;-53
2024/02/28 04:22:04;;;;;;;25.48;5.05;;;;;;;6.23;89.05;100754.03;5066479;28;20132;-54
2024/02/28 04:24:32;;;;;;;18.65;3.63;;;;;;;6.21;89.10;100752.75;5068068;28;20402;-56
2024/02/28 04:27:00;;;;;;;29.20;4.78;;;;;;;6.20;89.21;100753.84;5066145;28;20032;-54
2024/02/28 04:29:27;;;;;;;18.35;4.05;;;;;;;6.21;89.12;100758.22;5053086;28;20048;-56
2024/02/28 04:31:54;;;;;;;13.05;3.70;;;;;;;6.22;89.42;100755.19;5071621;28;20048;-55
2024/02/28 04:34:22;;;;;;;24.05;5.03;;;;;;;6.20;89.31;100746.41;5079448;28;20497;-57
2024/02/28 04:36:49;;;;;;;24.55;8.07;;;;;;;6.20;89.52;100740.94;5069522;28;20052;-58
2024/02/28 04:39:16;;;;;;;31.85;4.80;;;;;;;6.20;89.49;100726.38;5079365;28;20059;-58
2024/02/28 04:41:44;;;;;;;16.48;4.60;;;;;;;6.18;89.46;100720.38;5072457;28;20036;-56
2024/02/28 04:44:11;;;;;;;17.42;4.57;;;;;;;6.19;89.31;100711.03;5056484;28;20036;-58
2024/02/28 04:46:38;;;;;;;23.08;4.35;;;;;;;6.16;89.39;100709.72;5057574;28;20051;-55
2024/02/28 04:49:06;;;;;;;18.27;6.28;;;;;;;6.14;89.43;100714.72;5066879;28;20516;-53
2024/02/28 04:51:33;;;;;;;16.50;3.65;;;;;;;6.11;89.56;100710.66;5065443;28;20052;-61
2024/02/28 04:54:00;;;;;;;30.08;6.93;;;;;;;6.11;89.71;100704.34;5066697;28;20062;-57
2024/02/28 04:56:28;;;;;;;17.33;3.88;;;;;;;6.11;89.76;100694.19;5054729;28;20475;-57
2024/02/28 04:58:55;;;;;;;22.75;3.47;;;;;;;6.09;89.82;100696.41;5067017;28;20052;-57
2024/02/28 05:01:23;;;;;;;20.08;5.30;;;;;;;6.12;89.48;100683.97;5066409;28;20092;-56
2024/02/28 05:03:50;;;;;;;15.63;4.13;;;;;;;6.14;89.57;100687.25;5066945;28;20048;-58
2024/02/28 05:06:18;;;;;;;30.45;4.90;;;;;;;6.17;89.50;100678.34;5067455;28;20056;-57
2024/02/28 05:08:45;;;;;;;10.48;3.85;;;;;;;6.18;89.71;100679.97;5068146;28;20052;-56
2024/02/28 05:11:13;;;;;;;13.70;4.00;;;;;;;6.18;89.21;100671.72;5079061;28;20044;-53
2024/02/28 05:13:40;;;;;;;20.73;4.10;;;;;;;6.19;89.52;100662.34;5064236;28;20053;-53
2024/02/28 05:16:14;;;;;;;20.00;4.18;;;;;;;6.18;89.36;100659.91;5055134;28;20040;-55
2024/02/28 05:18:44;;;;;;;21.05;4.78;;;;;;;6.19;89.19;100647.78;5066351;28;20044;-55
2024/02/28 05:21:12;;;;;;;19.00;4.85;;;;;;;6.18;89.34;100638.72;5056075;28;20509;-57
2024/02/28 05:23:40;;;;;;;18.45;3.72;;;;;;;6.18;89.63;100635.16;5064886;28;20049;-57
2024/02/28 05:26:07;;;;;;;24.88;6.43;;;;;;;6.17;89.43;100620.59;5054503;28;20048;-58
2024/02/28 05:28:35;;;;;;;21.63;3.58;;;;;;;6.18;89.31;100616.75;5077574;28;20044;-55
2024/02/28 05:31:23;;;;;;;17.25;4.47;;;;;;;6.18;89.44;100613.19;5066796;28;20050;-56
2024/02/28 05:33:59;;;;;;;24.27;3.80;;;;;;;6.19;89.53;100606.56;5065414;28;20040;-58
2024/02/28 05:36:28;;;;;;;13.45;3.97;;;;;;;6.21;89.50;100594.13;5068360;28;20048;-58
2024/02/28 05:38:57;;;;;;;20.98;4.55;;;;;;;6.24;89.48;100595.41;5066337;28;20542;-58
2024/02/28 05:41:25;;;;;;;25.88;4.47;;;;;;;6.21;89.59;100591.38;5062428;28;20533;-57
2024/02/28 05:43:52;;;;;;;24.83;4.70;;;;;;;6.20;89.66;100592.50;5055205;28;20041;-59
2024/02/28 05:46:22;;;;;;;14.07;4.22;;;;;;;6.19;89.56;100601.88;5069615;28;20052;-53
2024/02/28 05:48:49;;;;;;;23.27;4.50;;;;;;;6.19;89.78;100590.06;5086255;28;20409;-52
2024/02/28 05:51:16;;;;;;;26.65;5.32;;;;;;;6.17;89.61;100586.84;5049333;28;20041;-53
2024/02/28 05:53:44;;;;;;;25.13;5.60;;;;;;;6.16;89.97;100579.72;5068236;28;20056;-55
2024/02/28 05:56:15;;;;;;;22.80;4.82;;;;;;;6.14;90.10;100574.53;5084154;28;20441;-53
2024/02/28 05:58:46;;;;;;;27.80;4.75;;;;;;;6.13;90.12;100581.16;5070522;28;20051;-51
2024/02/28 06:01:16;;;;;;;22.65;4.88;;;;;;;6.12;90.24;100580.34;5060160;28;20056;-54
2024/02/28 06:03:46;;;;;;;19.15;4.68;;;;;;;6.11;90.41;100567.75;5070876;28;20063;-55
2024/02/28 06:06:13;;;;;;;21.77;4.75;;;;;;;6.11;90.21;100572.44;5074447;28;20409;-56
2024/02/28 06:08:41;;;;;;;22.95;4.75;;;;;;;6.10;90.52;100568.88;5069611;28;20052;-56
2024/02/28 06:11:09;;;;;;;22.50;5.95;;;;;;;6.12;90.70;100555.59;5069685;28;20506;-57
2024/02/28 06:13:37;;;;;;;24.52;4.95;;;;;;;6.12;90.72;100546.53;5086945;28;20048;-56
2024/02/28 06:16:04;;;;;;;24.42;5.00;;;;;;;6.11;90.84;100544.94;5072133;28;20041;-56
2024/02/28 06:18:33;;;;;;;29.67;5.68;;;;;;;6.11;91.05;100536.69;5070794;28;20044;-58
2024/02/28 06:21:01;;;;;;;20.13;4.72;;;;;;;6.09;91.03;100536.19;5078232;28;20048;-56
2024/02/28 06:23:29;;;;;;;21.52;4.20;;;;;;;6.08;91.15;100524.41;5074267;28;20051;-55
2024/02/28 06:25:57;;;;;;;24.30;4.53;;;;;;;6.08;91.44;100529.91;5074970;28;20854;-57
2024/02/28 06:28:25;;;;;;;26.45;6.03;;;;;;;6.05;91.28;100499.50;5079860;28;20082;-57
2024/02/28 06:30:52;;;;;;;26.35;6.22;;;;;;;6.03;91.56;100482.53;5060042;28;20040;-57
2024/02/28 06:33:20;;;;;;;32.70;8.80;;;;;;;6.01;91.92;100462.81;5066115;28;20407;-55
2024/02/28 06:35:47;;;;;;;34.13;10.13;;;;;;;5.99;92.19;100437.56;5069063;28;20052;-56
2024/02/28 06:38:14;;;;;;;31.60;8.98;;;;;;;5.96;92.46;100433.53;5069093;28;20045;-54
2024/02/28 06:40:42;;;;;;;33.50;10.20;;;;;;;5.95;92.35;100453.91;5051253;28;20049;-56
2024/02/28 06:43:09;;;;;;;34.70;11.85;;;;;;;5.93;92.66;100450.66;5067594;28;20056;-55
2024/02/28 06:45:36;;;;;;;41.83;15.25;;;;;;;5.94;92.82;100443.22;5062665;28;20521;-55
2024/02/28 06:48:05;;;;;;;36.53;12.73;;;;;;;5.94;93.19;100456.97;5057425;28;20036;-54
2024/02/28 06:50:33;;;;;;;25.75;10.35;;;;;;;5.93;92.97;100463.63;5076360;28;20057;-56
2024/02/28 06:53:00;;;;;;;35.72;8.57;;;;;;;5.94;93.30;100456.97;5076347;28;20512;-54
2024/02/28 06:55:27;;;;;;;38.13;9.18;;;;;;;5.93;93.48;100447.13;5077581;28;20056;-55
2024/02/28 06:57:56;;;;;;;38.40;12.38;;;;;;;5.93;93.62;100438.88;5063742;28;20056;-51
2024/02/28 07:00:24;;;;;;;34.35;8.35;;;;;;;5.93;93.57;100441.63;5068014;28;20044;-56
2024/02/28 07:02:53;;;;;;;38.10;11.75;;;;;;;5.94;93.86;100440.47;5089797;28;20052;-54
2024/02/28 07:05:21;;;;;;;36.33;10.60;;;;;;;5.95;93.91;100433.88;5080477;28;20493;-52
2024/02/28 07:07:48;;;;;;;31.17;8.68;;;;;;;5.94;94.11;100440.47;5060676;28;20056;-53
2024/02/28 07:10:16;;;;;;;47.47;11.70;;;;;;;5.95;94.10;100440.19;5065596;28;20055;-54
2024/02/28 07:12:43;;;;;;;33.45;8.50;;;;;;;5.97;94.18;100423.34;5073287;28;20059;-51
2024/02/28 07:15:10;;;;;;;23.58;5.90;;;;;;;5.98;94.51;100419.50;5068030;28;20048;-51
2024/02/28 07:17:38;;;;;;;20.23;5.43;;;;;;;5.99;94.62;100423.84;5056912;28;20048;-54
2024/02/28 07:20:06;;;;;;;20.13;5.05;;;;;;;5.99;94.68;100426.59;5063638;28;20037;-54
2024/02/28 07:22:34;;;;;;;31.88;8.70;;;;;;;6.01;94.84;100429.84;5067909;28;20044;-56
2024/02/28 07:25:01;;;;;;;35.58;9.75;;;;;;;6.02;94.67;100423.19;5081769;28;20483;-54
2024/02/28 07:27:29;;;;;;;25.00;6.10;;;;;;;6.02;95.13;100421.25;5067395;28;20052;-53
2024/02/28 07:29:56;;;;;;;29.40;8.18;;;;;;;6.05;95.38;100417.06;5069995;28;20485;-56
2024/02/28 07:32:23;;;;;;;38.15;10.95;;;;;;;6.06;95.52;100399.44;5067790;28;20465;-51
2024/02/28 07:34:51;;;;;;;43.75;13.27;;;;;;;6.08;95.70;100388.94;5065217;28;20040;-54
2024/02/28 07:37:18;;;;;;;34.90;8.38;;;;;;;6.09;95.68;100393.28;5067640;28;20044;-53
2024/02/28 07:39:47;;;;;;;27.50;8.07;;;;;;;6.10;95.82;100398.47;5041021;28;20037;-55
2024/02/28 07:42:15;;;;;;;27.42;8.52;;;;;;;6.12;96.04;100409.13;5060525;28;20040;-55
2024/02/28 07:44:43;;;;;;;14.27;6.13;;;;;;;6.14;96.23;100404.13;5069320;28;20417;-56
2024/02/28 07:47:10;;;;;;;17.92;5.00;;;;;;;6.17;96.46;100397.97;5089226;28;20042;-56
2024/02/28 07:49:38;;;;;;;18.23;5.88;;;;;;;6.20;96.54;100416.56;5068595;28;20791;-53
2024/02/28 07:52:05;;;;;;;13.65;5.15;;;;;;;6.23;96.66;100410.44;5063382;28;20502;-53
2024/02/28 07:54:33;;;;;;;15.02;4.15;;;;;;;6.26;96.72;100397.97;5053365;28;20056;-50
2024/02/28 07:57:00;;;;;;;17.17;4.80;;;;;;;6.29;96.85;100397.31;5078272;28;20048;-54
2024/02/28 07:59:27;;;;;;;11.80;4.47;;;;;;;6.31;97.09;100382.13;5088196;28;20036;-55
2024/02/28 08:01:55;;;;;;;10.68;4.15;;;;;;;6.34;97.23;100391.66;5062700;28;20063;-56
2024/02/28 08:04:23;;;;;;;15.20;5.82;;;;;;;6.39;97.40;100397.81;5074036;28;20067;-54
2024/02/28 08:06:50;;;;;;;12.82;3.55;;;;;;;6.41;97.47;100384.53;5068040;28;20406;-54
2024/02/28 08:09:18;;;;;;;9.57;2.83;;;;;;;6.45;97.82;100374.50;5069128;28;20044;-54
2024/02/28 08:11:46;;;;;;;12.95;2.85;;;;;;;6.47;97.70;100380.47;5082602;28;20060;-57
2024/02/28 08:14:13;;;;;;;11.00;3.67;;;;;;;6.51;98.02;100380.66;5069722;28;20071;-52
2024/02/28 08:16:40;;;;;;;8.35;2.22;;;;;;;6.52;98.15;100374.81;5080647;28;20051;-54
2024/02/28 08:19:08;;;;;;;9.50;2.95;;;;;;;6.55;98.18;100368.66;5068304;28;20705;-52
2024/02/28 08:21:35;;;;;;;10.05;2.80;;;;;;;6.58;98.45;100351.50;5079812;28;20577;-52
2024/02/28 08:24:04;;;;;;;10.88;2.83;;;;;;;6.62;98.63;100352.44;5067317;28;20036;-54
2024/02/28 08:26:32;;;;;;;4.30;2.75;;;;;;;6.65;98.64;100357.28;5064913;28;20071;-51
2024/02/28 08:29:00;;;;;;;8.80;3.35;;;;;;;6.69;98.89;100361.03;5066901;28;20043;-52
2024/02/28 08:31:28;;;;;;;4.43;2.40;;;;;;;6.74;98.98;100358.09;5065136;28;20068;-53
2024/02/28 08:33:55;;;;;;;5.22;2.10;;;;;;;6.80;98.97;100352.41;5066934;28;20057;-52
2024/02/28 08:36:23;;;;;;;6.18;2.50;;;;;;;6.84;99.45;100347.84;5066291;28;20048;-50
2024/02/28 08:38:51;;;;;;;3.25;2.53;;;;;;;6.87;99.47;100336.19;5071394;28;20043;-54
2024/02/28 08:41:19;;;;;;;5.18;2.10;;;;;;;6.92;99.55;100345.06;5065643;28;20048;-53
2024/02/28 08:43:46;;;;;;;5.72;1.40;;;;;;;6.95;99.71;100333.38;5074471;28;20501;-54
2024/02/28 08:46:15;;;;;;;5.95;2.22;;;;;;;6.98;99.72;100331.91;5069830;28;20083;-53
2024/02/28 08:48:43;;;;;;;4.90;2.08;;;;;;;7.02;100.00;100330.09;5066149;28;20059;-53
2024/02/28 08:51:11;;;;;;;4.90;1.75;;;;;;;7.06;100.00;100334.63;5066712;28;20044;-53
2024/02/28 08:53:39;;;;;;;5.50;2.08;;;;;;;7.11;100.00;100328.13;5074468;28;20569;-52
2024/02/28 08:56:06;;;;;;;2.20;1.42;;;;;;;7.16;100.00;100330.69;5071612;28;20051;-57
2024/02/28 08:58:33;;;;;;;4.22;1.33;;;;;;;7.20;100.00;100337.94;5070326;28;20059;-56
2024/02/28 09:01:01;;;;;;;4.03;0.93;;;;;;;7.24;100.00;100335.34;5071530;28;20048;-56
2024/02/28 09:03:28;;;;;;;4.38;0.90;;;;;;;7.27;100.00;100341.00;5087372;28;20055;-54
2024/02/28 09:05:56;;;;;;;4.93;0.73;;;;;;;7.29;100.00;100338.72;5060593;28;20152;-56
2024/02/28 09:08:23;;;;;;;3.60;0.73;;;;;;;7.33;100.00;100334.13;5061281;28;20045;-58
2024/02/28 09:10:50;;;;;;;3.53;1.10;;;;;;;7.38;100.00;100332.34;5067327;28;20517;-56
2024/02/28 09:13:19;;;;;;;1.73;1.13;;;;;;;7.43;100.00;100315.63;5061363;28;20075;-56
2024/02/28 09:15:47;;;;;;;4.50;1.05;;;;;;;7.52;100.00;100319.13;5066209;28;20051;-54
2024/02/28 09:18:16;;;;;;;3.70;1.65;;;;;;;7.60;100.00;100324.56;5060791;28;20045;-53
2024/02/28 09:20:44;;;;;;;3.00;1.80;;;;;;;7.70;100.00;100323.38;5063198;28;20068;-54
2024/02/28 09:23:11;;;;;;;1.05;0.80;;;;;;;7.80;100.00;100318.25;5075395;28;20048;-56
2024/02/28 09:25:38;;;;;;;1.15;1.00;;;;;;;7.89;100.00;100318.97;5065392;28;20055;-55
2024/02/28 09:28:06;;;;;;;5.45;1.17;;;;;;;8.00;100.00;100319.38;5068271;28;20048;-53
2024/02/28 09:30:33;;;;;;;1.63;1.52;;;;;;;8.06;100.00;100306.19;5081139;28;20045;-52
2024/02/28 09:33:12;;;;;;;1.42;1.15;;;;;;;8.12;100.00;100315.88;5071060;28;20383;-55
2024/02/28 09:35:39;;;;;;;1.00;0.30;;;;;;;8.18;100.00;100307.03;5060469;28;20056;-56
2024/02/28 09:38:07;;;;;;;1.55;1.02;;;;;;;8.24;100.00;100311.19;5071629;28;20047;-56
2024/02/28 09:40:34;;;;;;;3.13;0.50;;;;;;;8.29;100.00;100315.72;5069941;28;20049;-57
2024/02/28 09:43:03;;;;;;;3.65;1.42;;;;;;;8.40;100.00;100303.91;5069193;28;20048;-55
2024/02/28 09:45:32;;;;;;;2.28;0.47;;;;;;;8.49;100.00;100301.06;5068800;28;20044;-59
2024/02/28 09:48:03;;;;;;;0.57;0.57;;;;;;;8.60;100.00;100310.50;5078636;28;20041;-53
2024/02/28 09:50:31;;;;;;;0.30;0.20;;;;;;;8.74;100.00;100294.41;5080499;28;20431;-58
2024/02/28 09:52:58;;;;;;;0.45;0.20;;;;;;;8.85;100.00;100306.63;5070554;28;20461;-56
2024/02/28 09:55:36;;;;;;;0.73;0.40;;;;;;;8.94;100.00;100290.75;5052969;28;20046;-56
2024/02/28 09:58:05;;;;;;;1.58;0.30;;;;;;;9.02;100.00;100300.88;5046576;28;20512;-58
2024/02/28 10:00:34;;;;;;;0.13;0.13;;;;;;;9.12;100.00;100296.84;5064709;28;20044;-55
2024/02/28 10:03:04;;;;;;;1.00;0.20;;;;;;;9.19;100.00;100291.53;5072222;28;20060;-55
2024/02/28 10:05:33;;;;;;;0.30;0.22;;;;;;;9.26;100.00;100274.41;5069126;28;20048;-57
2024/02/28 10:08:01;;;;;;;0.65;0.40;;;;;;;9.36;100.00;100290.47;5070691;28;20048;-57
2024/02/28 10:10:29;;;;;;;0.20;0.10;;;;;;;9.46;100.00;100270.66;5050801;28;20048;-59
2024/02/28 10:12:57;;;;;;;0.38;0.15;;;;;;;9.54;100.00;100266.94;5069504;28;20048;-55
2024/02/28 10:15:27;;;;;;;0.30;0.22;;;;;;;9.61;100.00;100261.66;5085678;28;20425;-54
2024/02/28 10:17:55;;;;;;;1.40;0.30;;;;;;;9.68;100.00;100261.84;5086397;28;20055;-57
2024/02/28 10:20:22;;;;;;;0.38;0.30;;;;;;;9.79;100.00;100254.69;5072873;28;20048;-56
2024/02/28 10:22:52;;;;;;;1.42;0.35;;;;;;;9.90;100.00;100258.53;5080397;28;20477;-57
2024/02/28 10:25:20;;;;;;;0.40;0.17;;;;;;;10.00;100.00;100258.03;5083579;28;20083;-59
2024/02/28 10:27:48;;;;;;;0.25;0.20;;;;;;;10.06;100.00;100253.06;5067907;28;20754;-57
2024/02/28 10:30:16;;;;;;;0.65;0.10;;;;;;;10.12;100.00;100249.69;5073813;28;20051;-55
2024/02/28 10:32:50;;;;;;;1.00;0.30;;;;;;;10.18;100.00;100251.06;5088234;28;20413;-58
2024/02/28 10:35:19;;;;;;;0.63;0.35;;;;;;;10.21;100.00;100255.88;5087884;28;20039;-54
2024/02/28 10:37:50;;;;;;;0.98;0.30;;;;;;;10.25;100.00;100245.69;5073260;28;20044;-56
2024/02/28 10:40:17;;;;;;;0.68;0.52;;;;;;;10.28;100.00;100247.75;5088702;28;20051;-57
2024/02/28 10:42:46;;;;;;;0.22;0.20;;;;;;;10.29;100.00;100243.84;5073419;28;20055;-55
2024/02/28 10:45:17;;;;;;;0.75;0.10;;;;;;;10.34;100.00;100226.16;5076185;28;20281;-55
2024/02/28 10:48:02;;;;;;;0.40;0.20;;;;;;;10.39;100.00;100220.38;5081714;28;20051;-58
2024/02/28 10:50:29;;;;;;;0.25;0.10;;;;;;;10.42;100.00;100232.69;5067858;28;20055;-57
2024/02/28 10:53:02;;;;;;;0.15;0.15;;;;;;;10.43;100.00;100237.88;5078006;28;20433;-56
2024/02/28 10:55:34;;;;;;;4.22;0.60;;;;;;;10.48;100.00;100228.50;5061294;28;20048;-54
2024/02/28 10:58:13;;;;;;;0.30;0.20;;;;;;;10.50;100.00;100226.97;5063595;28;20044;-56
2024/02/28 11:00:42;;;;;;;0.50;0.40;;;;;;;10.55;100.00;100218.41;5058058;28;20401;-59
2024/02/28 11:03:10;;;;;;;0.17;0.17;;;;;;;10.58;100.00;100216.88;5079263;28;20052;-57
2024/02/28 11:05:42;;;;;;;0.50;0.30;;;;;;;10.64;100.00;100215.47;5071810;28;20412;-56
2024/02/28 11:08:10;;;;;;;0.47;0.30;;;;;;;10.69;100.00;100215.19;5080857;28;20536;-57
2024/02/28 11:10:42;;;;;;;0.32;0.20;;;;;;;10.73;100.00;100202.22;5064574;28;20040;-56
2024/02/28 11:13:20;;;;;;;1.63;0.30;;;;;;;10.74;100.00;100193.56;5080081;28;20048;-58
2024/02/28 11:15:48;;;;;;;0.43;0.32;;;;;;;10.76;100.00;100201.50;5062880;28;21046;-57
2024/02/28 11:18:17;;;;;;;0.20;0.20;;;;;;;10.77;100.00;100205.88;5061884;28;20414;-56
2024/02/28 11:20:48;;;;;;;0.65;0.20;;;;;;;10.76;100.00;100193.19;5055216;28;20048;-57
2024/02/28 11:23:17;;;;;;;0.30;0.20;;;;;;;10.73;100.00;100203.03;5082760;28;20060;-56
2024/02/28 11:25:45;;;;;;;0.50;0.47;;;;;;;10.72;100.00;100212.47;5080175;28;20079;-56
2024/02/28 11:28:14;;;;;;;0.57;0.40;;;;;;;10.72;100.00;100211.69;5050259;28;20048;-56